Time;durP1;ratioP1;P1;durP2;ratioP2;P2;SDS_P1;SDS_P2;PMS_P1;PMS_P2;Temp;Humidity;BMP_temperature;BMP_pressure;BME280_temperature;BME280_humidity;BME280_pressure;Samples;Min_cycle;Max_cycle;Signal;HPM_P1;HPM_P2
2023/12/16 00:01:21;;;;;;;0.00;0.00;;;10.90;76.00;;;;;;5042724;28;20586;-25
2023/12/16 00:03:48;;;;;;;0.00;0.00;;;10.90;76.10;;;;;;5059924;28;20215;-25
2023/12/16 00:06:19;;;;;;;0.00;0.00;;;10.90;76.00;;;;;;5064085;28;20235;-25
2023/12/16 00:08:48;;;;;;;0.00;0.00;;;10.90;76.00;;;;;;5057708;28;20204;-25
2023/12/16 00:11:20;;;;;;;0.00;0.00;;;10.90;76.00;;;;;;5044157;28;20212;-25
2023/12/16 00:13:53;;;;;;;0.00;0.00;;;10.90;76.00;;;;;;5044091;28;20195;-25
2023/12/16 00:16:22;;;;;;;0.00;0.00;;;10.90;75.90;;;;;;5054514;28;20203;-25
2023/12/16 00:18:54;;;;;;;0.00;0.00;;;10.90;76.00;;;;;;5064032;28;20327;-24
2023/12/16 00:21:22;;;;;;;0.00;0.00;;;10.90;75.90;;;;;;5064527;28;20200;-25
2023/12/16 00:23:51;;;;;;;0.00;0.00;;;10.90;75.80;;;;;;5064191;28;20204;-25
2023/12/16 00:26:21;;;;;;;0.00;0.00;;;10.80;75.90;;;;;;5054176;28;20216;-25
2023/12/16 00:28:55;;;;;;;0.00;0.00;;;10.80;75.90;;;;;;5043518;28;20196;-25
2023/12/16 00:31:22;;;;;;;0.00;0.00;;;10.80;75.90;;;;;;5045889;28;20258;-25
2023/12/16 00:33:49;;;;;;;0.00;0.00;;;10.80;75.90;;;;;;5047701;28;20315;-25
2023/12/16 00:36:17;;;;;;;0.00;0.00;;;10.90;76.00;;;;;;5060920;28;20208;-25
2023/12/16 00:38:46;;;;;;;0.00;0.00;;;10.80;75.80;;;;;;5053541;28;20576;-25
2023/12/16 00:41:16;;;;;;;0.00;0.00;;;10.80;75.80;;;;;;5047893;28;20205;-25
2023/12/16 00:43:48;;;;;;;0.00;0.00;;;10.90;75.90;;;;;;5045726;28;20211;-25
2023/12/16 00:46:15;;;;;;;0.00;0.00;;;10.80;75.90;;;;;;5047098;28;20200;-25
2023/12/16 00:48:45;;;;;;;0.00;0.00;;;10.90;75.80;;;;;;5047782;28;20201;-25
2023/12/16 00:51:12;;;;;;;0.00;0.00;;;10.80;75.60;;;;;;5048052;28;20193;-25
2023/12/16 00:53:39;;;;;;;0.00;0.00;;;10.80;75.70;;;;;;5046032;28;20216;-25
2023/12/16 00:56:08;;;;;;;0.00;0.00;;;10.80;75.70;;;;;;5047720;28;20204;-25
2023/12/16 00:58:35;;;;;;;0.00;0.00;;;10.80;75.70;;;;;;5047404;28;20750;-25
2023/12/16 01:01:07;;;;;;;0.00;0.00;;;10.80;75.70;;;;;;5046567;28;20563;-24
2023/12/16 01:03:37;;;;;;;0.00;0.00;;;10.80;75.70;;;;;;5047521;28;20510;-25
2023/12/16 01:06:05;;;;;;;0.00;0.00;;;10.80;75.70;;;;;;5047283;28;20309;-25
2023/12/16 01:08:33;;;;;;;0.00;0.00;;;10.80;75.70;;;;;;5045802;28;20632;-25
2023/12/16 01:11:00;;;;;;;0.00;0.00;;;10.80;75.70;;;;;;5047200;28;20208;-25
2023/12/16 01:13:27;;;;;;;0.00;0.00;;;10.80;75.70;;;;;;5047086;28;20219;-25
2023/12/16 01:15:55;;;;;;;0.00;0.00;;;10.80;75.70;;;;;;5058660;28;20203;-25
2023/12/16 01:18:25;;;;;;;0.00;0.00;;;10.80;75.70;;;;;;5065951;28;20257;-25
2023/12/16 01:20:54;;;;;;;0.00;0.00;;;10.80;75.70;;;;;;5067008;28;20221;-25
2023/12/16 01:23:24;;;;;;;0.00;0.00;;;10.80;75.70;;;;;;5067372;28;20203;-25
2023/12/16 01:25:51;;;;;;;0.00;0.00;;;10.80;75.70;;;;;;5054428;28;20561;-25
2023/12/16 01:28:20;;;;;;;0.00;0.00;;;10.80;75.70;;;;;;5046548;28;20234;-25
2023/12/16 01:30:53;;;;;;;0.00;0.00;;;10.80;75.60;;;;;;5046415;28;20212;-25
2023/12/16 01:33:23;;;;;;;0.00;0.00;;;10.80;75.60;;;;;;5046736;28;20773;-24
2023/12/16 01:35:55;;;;;;;0.00;0.00;;;10.80;75.60;;;;;;5045072;28;20201;-25
2023/12/16 01:38:22;;;;;;;0.00;0.00;;;10.80;75.60;;;;;;5045220;28;20630;-26
2023/12/16 01:40:52;;;;;;;0.00;0.00;;;10.80;75.60;;;;;;5045017;28;20211;-24
2023/12/16 01:43:21;;;;;;;0.00;0.00;;;10.80;75.50;;;;;;5045903;28;20208;-25
2023/12/16 01:46:02;;;;;;;0.00;0.00;;;10.70;75.40;;;;;;5045758;28;20298;-25
2023/12/16 01:48:34;;;;;;;0.00;0.00;;;10.70;75.40;;;;;;5046421;28;20248;-25
2023/12/16 01:51:02;;;;;;;0.00;0.00;;;10.70;75.30;;;;;;5046492;28;20246;-25
2023/12/16 01:53:32;;;;;;;0.00;0.00;;;10.70;75.40;;;;;;5046127;28;20214;-25
2023/12/16 01:56:05;;;;;;;0.00;0.00;;;10.70;75.60;;;;;;5046214;28;20734;-24
2023/12/16 01:58:33;;;;;;;0.00;0.00;;;10.70;75.40;;;;;;5045851;28;20208;-24
2023/12/16 02:01:05;;;;;;;0.00;0.00;;;10.70;75.40;;;;;;5045143;28;20201;-26
2023/12/16 02:03:38;;;;;;;0.00;0.00;;;10.70;75.40;;;;;;5050044;28;20231;-25
2023/12/16 02:06:08;;;;;;;0.00;0.00;;;10.70;75.40;;;;;;5063549;28;20232;-24
2023/12/16 02:08:36;;;;;;;0.00;0.00;;;10.70;75.50;;;;;;5057128;28;20227;-26
2023/12/16 02:11:03;;;;;;;0.00;0.00;;;10.70;75.60;;;;;;5059377;28;20641;-25
2023/12/16 02:13:33;;;;;;;0.00;0.00;;;10.70;75.60;;;;;;5064331;28;20640;-25
2023/12/16 02:16:05;;;;;;;0.00;0.00;;;10.70;75.40;;;;;;5051506;28;20273;-25
2023/12/16 02:18:32;;;;;;;0.00;0.00;;;10.70;75.40;;;;;;5058651;28;20284;-25
2023/12/16 02:21:04;;;;;;;0.00;0.00;;;10.70;75.40;;;;;;5064170;28;20878;-25
2023/12/16 02:23:37;;;;;;;0.00;0.00;;;10.70;75.40;;;;;;5061066;28;20769;-25
2023/12/16 02:26:10;;;;;;;0.00;0.00;;;10.70;75.40;;;;;;5056468;28;20295;-25
2023/12/16 02:28:38;;;;;;;0.00;0.00;;;10.70;75.40;;;;;;5058605;28;20258;-25
2023/12/16 02:31:06;;;;;;;0.00;0.00;;;10.70;75.40;;;;;;5043384;28;20784;-25
2023/12/16 02:33:33;;;;;;;0.00;0.00;;;10.70;75.40;;;;;;5027523;28;20291;-24
2023/12/16 02:36:01;;;;;;;0.00;0.00;;;10.70;75.40;;;;;;5045683;28;20360;-24
2023/12/16 02:38:30;;;;;;;0.00;0.00;;;10.70;75.40;;;;;;5045428;28;20292;-24
2023/12/16 02:41:02;;;;;;;0.00;0.00;;;10.70;75.30;;;;;;5044015;28;20204;-24
2023/12/16 02:43:32;;;;;;;0.00;0.00;;;10.70;75.30;;;;;;5045717;28;20512;-24
2023/12/16 02:46:03;;;;;;;0.00;0.00;;;10.70;75.30;;;;;;5043013;28;20202;-24
2023/12/16 02:48:30;;;;;;;0.00;0.00;;;10.70;75.40;;;;;;5043580;28;20270;-24
2023/12/16 02:51:00;;;;;;;0.00;0.00;;;10.70;75.40;;;;;;5045129;28;20196;-24
2023/12/16 02:53:27;;;;;;;0.00;0.00;;;10.70;75.30;;;;;;5043815;28;20208;-25
2023/12/16 02:55:54;;;;;;;0.00;0.00;;;10.70;75.40;;;;;;5044681;28;20205;-25
2023/12/16 02:58:24;;;;;;;0.00;0.00;;;10.70;75.30;;;;;;5061052;28;20204;-24
2023/12/16 03:00:51;;;;;;;0.00;0.00;;;10.60;75.10;;;;;;5057808;28;20540;-24
2023/12/16 03:03:19;;;;;;;0.00;0.00;;;10.60;75.10;;;;;;5045034;28;20204;-24
2023/12/16 03:05:48;;;;;;;0.00;0.00;;;10.60;75.10;;;;;;5043278;28;20231;-24
2023/12/16 03:08:15;;;;;;;0.00;0.00;;;10.60;75.20;;;;;;5043327;28;20353;-24
2023/12/16 03:10:42;;;;;;;0.00;0.00;;;10.60;75.20;;;;;;5044737;28;20538;-24
2023/12/16 03:13:12;;;;;;;0.00;0.00;;;10.60;75.00;;;;;;5044788;28;20228;-24
2023/12/16 03:15:39;;;;;;;0.00;0.00;;;10.60;75.10;;;;;;5042403;28;20691;-24
2023/12/16 03:18:11;;;;;;;0.00;0.00;;;10.60;75.10;;;;;;5044877;28;20212;-25
2023/12/16 03:20:39;;;;;;;0.00;0.00;;;10.60;75.10;;;;;;5044681;28;20200;-25
2023/12/16 03:23:08;;;;;;;0.00;0.00;;;10.50;75.00;;;;;;5048914;28;20260;-24
2023/12/16 03:25:37;;;;;;;0.00;0.00;;;10.50;75.00;;;;;;5064034;28;20329;-25
2023/12/16 03:28:04;;;;;;;0.00;0.00;;;10.50;74.90;;;;;;5060354;28;20234;-25
2023/12/16 03:30:32;;;;;;;0.00;0.00;;;10.50;74.90;;;;;;5043677;28;20246;-25
2023/12/16 03:33:01;;;;;;;0.00;0.00;;;10.50;74.90;;;;;;5042805;28;20220;-24
2023/12/16 03:35:29;;;;;;;0.00;0.00;;;10.50;75.00;;;;;;5051316;28;20199;-25
2023/12/16 03:38:00;;;;;;;0.00;0.00;;;10.50;74.90;;;;;;5048158;28;20544;-24
2023/12/16 03:40:27;;;;;;;0.00;0.00;;;10.40;74.80;;;;;;5056918;28;20206;-24
2023/12/16 03:42:55;;;;;;;0.00;0.00;;;10.40;74.90;;;;;;5064188;28;20282;-25
2023/12/16 03:45:23;;;;;;;0.00;0.00;;;10.40;75.00;;;;;;5061599;28;20288;-24
2023/12/16 03:47:55;;;;;;;0.00;0.00;;;10.40;74.90;;;;;;5064275;28;20808;-24
2023/12/16 03:50:25;;;;;;;0.00;0.00;;;10.40;74.90;;;;;;5061985;28;21092;-24
2023/12/16 03:52:54;;;;;;;0.00;0.00;;;10.30;74.90;;;;;;5062457;28;20511;-25
2023/12/16 03:55:22;;;;;;;0.00;0.00;;;10.30;74.80;;;;;;5062600;28;20284;-24
2023/12/16 03:57:54;;;;;;;0.00;0.00;;;10.30;74.90;;;;;;5064139;28;20253;-24
2023/12/16 04:00:21;;;;;;;0.00;0.00;;;10.30;75.00;;;;;;5052821;28;20208;-24
2023/12/16 04:02:48;;;;;;;0.00;0.00;;;10.30;75.00;;;;;;5042706;28;20226;-24
2023/12/16 04:05:18;;;;;;;0.00;0.00;;;10.30;74.90;;;;;;5042303;28;20732;-24
2023/12/16 04:07:50;;;;;;;0.00;0.00;;;10.30;74.80;;;;;;5042653;28;20223;-25
2023/12/16 04:10:17;;;;;;;0.00;0.00;;;10.30;74.80;;;;;;5043967;28;20568;-24
2023/12/16 04:12:44;;;;;;;0.00;0.00;;;10.30;74.80;;;;;;5042494;28;20643;-24
2023/12/16 04:15:12;;;;;;;0.00;0.00;;;10.30;74.90;;;;;;5041757;28;20189;-24
2023/12/16 04:17:39;;;;;;;0.00;0.00;;;10.30;74.80;;;;;;5042500;28;20289;-25
2023/12/16 04:20:07;;;;;;;0.00;0.00;;;10.20;74.70;;;;;;5042372;28;20208;-24
2023/12/16 04:22:42;;;;;;;0.00;0.00;;;10.20;74.70;;;;;;5044081;28;20698;-24
2023/12/16 04:25:12;;;;;;;0.00;0.00;;;10.20;74.70;;;;;;5044273;28;20212;-24
2023/12/16 04:27:44;;;;;;;0.00;0.00;;;10.20;74.70;;;;;;5042136;28;20223;-24
2023/12/16 04:30:14;;;;;;;0.00;0.00;;;10.20;74.70;;;;;;5042809;28;20753;-24
2023/12/16 04:32:43;;;;;;;0.00;0.00;;;10.10;74.70;;;;;;5042160;28;20212;-24
2023/12/16 04:35:13;;;;;;;0.00;0.00;;;10.10;74.70;;;;;;5043991;28;20726;-24
2023/12/16 04:37:44;;;;;;;0.00;0.00;;;10.10;74.70;;;;;;5041983;28;20674;-24
2023/12/16 04:40:12;;;;;;;0.00;0.00;;;10.10;74.80;;;;;;5043137;28;20224;-24
2023/12/16 04:42:41;;;;;;;0.00;0.00;;;10.10;74.70;;;;;;5043837;28;20200;-24
2023/12/16 04:45:11;;;;;;;0.00;0.00;;;10.10;74.60;;;;;;5043239;28;20266;-25
2023/12/16 04:47:39;;;;;;;0.00;0.00;;;10.10;74.70;;;;;;5043710;28;20220;-24
2023/12/16 04:50:09;;;;;;;0.00;0.00;;;10.10;74.70;;;;;;5042581;28;20526;-24
2023/12/16 04:52:43;;;;;;;0.00;0.00;;;10.00;74.50;;;;;;5042307;28;20208;-24
2023/12/16 04:55:10;;;;;;;0.00;0.00;;;10.10;74.60;;;;;;5043614;28;20255;-25
2023/12/16 04:57:40;;;;;;;0.00;0.00;;;10.00;74.50;;;;;;5043701;28;20240;-24
2023/12/16 05:00:08;;;;;;;0.00;0.00;;;10.00;74.50;;;;;;5043792;28;20303;-24
2023/12/16 05:02:35;;;;;;;0.00;0.00;;;10.00;74.50;;;;;;5043286;28;20197;-25
2023/12/16 05:05:05;;;;;;;0.00;0.00;;;10.00;74.50;;;;;;5043397;28;20634;-25
2023/12/16 05:07:34;;;;;;;0.00;0.00;;;10.00;74.50;;;;;;5043779;28;20475;-24
2023/12/16 05:10:02;;;;;;;0.00;0.00;;;9.90;74.50;;;;;;5044153;28;20208;-24
2023/12/16 05:12:32;;;;;;;0.00;0.00;;;9.90;74.40;;;;;;5042154;28;20200;-24
2023/12/16 05:15:08;;;;;;;0.00;0.00;;;9.90;74.50;;;;;;5042655;28;20733;-25
2023/12/16 05:17:37;;;;;;;0.00;0.00;;;9.90;74.40;;;;;;5045669;28;20198;-24
2023/12/16 05:20:08;;;;;;;0.00;0.00;;;9.80;74.30;;;;;;5047027;28;20204;-24
2023/12/16 05:22:40;;;;;;;0.00;0.00;;;9.80;74.30;;;;;;5064233;28;20212;-24
2023/12/16 05:25:08;;;;;;;0.00;0.00;;;9.80;74.30;;;;;;5050709;28;20204;-25
2023/12/16 05:27:35;;;;;;;0.00;0.00;;;9.80;74.30;;;;;;5044939;28;20196;-24
2023/12/16 05:30:03;;;;;;;0.00;0.00;;;9.70;74.20;;;;;;5066098;28;20203;-24
2023/12/16 05:32:35;;;;;;;0.00;0.00;;;9.70;74.30;;;;;;5065406;28;20196;-24
2023/12/16 05:35:07;;;;;;;0.00;0.00;;;9.70;74.30;;;;;;5067040;28;20196;-24
2023/12/16 05:37:37;;;;;;;0.00;0.00;;;9.70;74.30;;;;;;5065213;28;20200;-24
2023/12/16 05:40:05;;;;;;;0.00;0.00;;;9.70;74.30;;;;;;5046432;28;20717;-24
2023/12/16 05:42:35;;;;;;;0.00;0.00;;;9.60;74.20;;;;;;5046573;28;20204;-23
2023/12/16 05:45:05;;;;;;;0.00;0.00;;;9.70;74.20;;;;;;5045919;28;20219;-24
2023/12/16 05:47:33;;;;;;;0.00;0.00;;;9.60;74.20;;;;;;5045004;28;20765;-24
2023/12/16 05:50:02;;;;;;;0.00;0.00;;;9.60;74.20;;;;;;5047220;28;20204;-24
2023/12/16 05:52:32;;;;;;;0.00;0.00;;;9.60;74.20;;;;;;5045078;28;20684;-24
2023/12/16 05:55:00;;;;;;;0.00;0.00;;;9.60;74.20;;;;;;5046340;28;20196;-24
2023/12/16 05:57:27;;;;;;;0.00;0.00;;;9.50;74.10;;;;;;5044925;28;20210;-23
2023/12/16 05:59:54;;;;;;;0.00;0.00;;;9.60;74.30;;;;;;5051451;28;20204;-24
2023/12/16 06:02:24;;;;;;;0.00;0.00;;;9.60;74.20;;;;;;5054148;28;20208;-24
2023/12/16 06:04:53;;;;;;;0.00;0.00;;;9.50;74.20;;;;;;5051871;28;20294;-25
2023/12/16 06:07:23;;;;;;;0.00;0.00;;;9.50;75.00;;;;;;5054861;28;20321;-24
2023/12/16 06:09:54;;;;;;;0.00;0.00;;;9.50;74.20;;;;;;5054133;28;20698;-24
2023/12/16 06:12:23;;;;;;;0.00;0.00;;;9.50;74.20;;;;;;5051608;28;20264;-24
2023/12/16 06:14:50;;;;;;;0.00;0.00;;;9.50;74.30;;;;;;5046557;28;20192;-24
2023/12/16 06:17:20;;;;;;;0.00;0.00;;;9.50;74.30;;;;;;5051120;28;20199;-24
2023/12/16 06:19:52;;;;;;;0.00;0.00;;;9.50;74.30;;;;;;5050396;28;20206;-24
2023/12/16 06:22:19;;;;;;;0.00;0.00;;;9.50;74.20;;;;;;5031457;28;20212;-24
2023/12/16 06:24:49;;;;;;;0.00;0.00;;;9.50;74.20;;;;;;5041635;28;20470;-24
2023/12/16 06:27:18;;;;;;;0.00;0.00;;;9.50;74.20;;;;;;5047598;28;20241;-25
2023/12/16 06:29:45;;;;;;;0.00;0.00;;;9.50;74.20;;;;;;5042972;28;20220;-24
2023/12/16 06:32:15;;;;;;;0.00;0.00;;;9.50;74.20;;;;;;5047221;28;20295;-24
2023/12/16 06:34:46;;;;;;;0.00;0.00;;;9.50;74.10;;;;;;5055522;28;20216;-23
2023/12/16 06:37:15;;;;;;;0.00;0.00;;;9.50;74.10;;;;;;5058479;28;20231;-24
2023/12/16 06:39:44;;;;;;;0.00;0.00;;;9.50;74.20;;;;;;5065292;28;20749;-24
2023/12/16 06:42:21;;;;;;;0.00;0.00;;;9.50;74.20;;;;;;5063155;28;20207;-24
2023/12/16 06:44:53;;;;;;;0.00;0.00;;;9.50;74.10;;;;;;5051444;28;20329;-24
2023/12/16 06:47:20;;;;;;;0.00;0.00;;;9.40;74.20;;;;;;5074957;28;20593;-25
2023/12/16 06:49:49;;;;;;;0.00;0.00;;;9.40;74.20;;;;;;5065030;28;20280;-24
2023/12/16 06:52:19;;;;;;;0.00;0.00;;;9.40;74.20;;;;;;5063608;28;20196;-24
2023/12/16 06:54:49;;;;;;;0.00;0.00;;;9.40;74.20;;;;;;5065197;28;20231;-24
2023/12/16 06:57:19;;;;;;;0.00;0.00;;;9.40;74.30;;;;;;5063729;28;20199;-24
2023/12/16 06:59:50;;;;;;;0.00;0.00;;;9.50;74.30;;;;;;5063140;28;20215;-24
2023/12/16 07:02:18;;;;;;;0.00;0.00;;;9.40;74.20;;;;;;5065167;28;20833;-24
2023/12/16 07:04:47;;;;;;;0.00;0.00;;;9.40;74.20;;;;;;5063464;28;20207;-23
2023/12/16 07:07:15;;;;;;;0.00;0.00;;;9.40;74.30;;;;;;5064773;28;20235;-24
2023/12/16 07:09:42;;;;;;;0.00;0.00;;;9.50;74.30;;;;;;5062879;28;20231;-24
2023/12/16 07:12:14;;;;;;;0.00;0.00;;;9.50;74.30;;;;;;5064878;28;20203;-24
2023/12/16 07:14:43;;;;;;;0.00;0.00;;;9.50;74.40;;;;;;5064979;28;20198;-24
2023/12/16 07:17:15;;;;;;;0.00;0.00;;;9.50;74.20;;;;;;5066376;28;20610;-24
2023/12/16 07:19:42;;;;;;;0.00;0.00;;;9.50;74.30;;;;;;5064334;28;20220;-24
2023/12/16 07:22:09;;;;;;;0.00;0.00;;;9.50;74.30;;;;;;5060432;28;20203;-24
2023/12/16 07:24:38;;;;;;;0.00;0.00;;;9.50;74.30;;;;;;5047874;28;20253;-24
2023/12/16 07:27:09;;;;;;;0.00;0.00;;;9.60;74.50;;;;;;5062877;28;20257;-24
2023/12/16 07:29:39;;;;;;;0.00;0.00;;;9.50;74.30;;;;;;5051367;28;20235;-23
2023/12/16 07:32:09;;;;;;;0.00;0.00;;;9.60;74.30;;;;;;5042974;28;20204;-24
2023/12/16 07:34:43;;;;;;;0.00;0.00;;;9.60;74.30;;;;;;5044642;28;20262;-24
2023/12/16 07:37:13;;;;;;;0.00;0.00;;;9.60;74.30;;;;;;5042985;28;20212;-24
2023/12/16 07:39:43;;;;;;;0.00;0.00;;;9.60;74.30;;;;;;5050983;28;20204;-23
2023/12/16 07:42:15;;;;;;;0.00;0.00;;;9.60;74.30;;;;;;5047013;28;20294;-24
2023/12/16 07:44:42;;;;;;;0.00;0.00;;;9.60;74.30;;;;;;5042223;28;20210;-24
2023/12/16 07:47:14;;;;;;;0.00;0.00;;;9.60;74.40;;;;;;5044642;28;20223;-25
2023/12/16 07:49:41;;;;;;;0.00;0.00;;;9.60;74.20;;;;;;5042665;28;20216;-24
2023/12/16 07:52:11;;;;;;;0.00;0.00;;;9.60;74.30;;;;;;5044755;28;20541;-24
2023/12/16 07:54:39;;;;;;;0.00;0.00;;;9.70;74.30;;;;;;5042833;28;20235;-24
2023/12/16 07:57:06;;;;;;;0.00;0.00;;;9.70;74.40;;;;;;5048748;28;20218;-24
2023/12/16 07:59:33;;;;;;;0.00;0.00;;;9.70;74.40;;;;;;5056553;28;20205;-23
2023/12/16 08:02:08;;;;;;;0.00;0.00;;;9.70;74.40;;;;;;5042332;28;20620;-24
2023/12/16 08:04:35;;;;;;;0.00;0.00;;;9.70;74.30;;;;;;5044443;28;20207;-24
2023/12/16 08:07:10;;;;;;;0.00;0.00;;;9.70;74.30;;;;;;5043945;28;20618;-24
2023/12/16 08:09:43;;;;;;;0.00;0.00;;;9.80;74.40;;;;;;5041567;28;20231;-24
2023/12/16 08:12:11;;;;;;;0.00;0.00;;;9.80;74.40;;;;;;5043894;28;20287;-24
2023/12/16 08:14:38;;;;;;;0.00;0.00;;;9.80;74.50;;;;;;5042227;28;20800;-24
2023/12/16 08:17:08;;;;;;;0.00;0.00;;;9.80;74.50;;;;;;5044683;28;20196;-24
2023/12/16 08:19:37;;;;;;;0.00;0.00;;;9.80;74.40;;;;;;5048521;28;20211;-25
2023/12/16 08:22:04;;;;;;;0.00;0.00;;;9.80;74.50;;;;;;5057534;28;20212;-24
2023/12/16 08:24:34;;;;;;;0.00;0.00;;;9.80;74.50;;;;;;5049869;28;20207;-23
2023/12/16 08:27:01;;;;;;;0.00;0.00;;;9.80;74.50;;;;;;5060912;28;20286;-25
2023/12/16 08:29:30;;;;;;;0.00;0.00;;;9.90;74.60;;;;;;5054424;28;20314;-24
2023/12/16 08:32:02;;;;;;;0.00;0.00;;;9.90;74.50;;;;;;5062752;28;20191;-24
2023/12/16 08:34:31;;;;;;;0.00;0.00;;;9.90;74.50;;;;;;5062799;28;20207;-24
2023/12/16 08:36:59;;;;;;;0.00;0.00;;;9.90;74.50;;;;;;5062591;28;20235;-24
2023/12/16 08:39:28;;;;;;;0.00;0.00;;;10.00;74.60;;;;;;5055245;28;20678;-24
2023/12/16 08:42:00;;;;;;;0.00;0.00;;;10.00;74.50;;;;;;5044041;28;20674;-24
2023/12/16 08:44:32;;;;;;;0.00;0.00;;;10.00;74.60;;;;;;5043148;28;20273;-25
2023/12/16 08:47:00;;;;;;;0.00;0.00;;;10.00;74.60;;;;;;5042333;28;20227;-24
2023/12/16 08:49:29;;;;;;;0.00;0.00;;;10.10;74.60;;;;;;5044649;28;20307;-25
2023/12/16 08:51:59;;;;;;;0.00;0.00;;;10.10;74.70;;;;;;5044933;28;20206;-25
2023/12/16 08:54:27;;;;;;;0.00;0.00;;;10.10;74.70;;;;;;5046396;28;20254;-24
2023/12/16 08:56:54;;;;;;;0.00;0.00;;;10.20;74.60;;;;;;5047429;28;20212;-23
2023/12/16 08:59:26;;;;;;;0.00;0.00;;;10.20;74.60;;;;;;5046895;28;20278;-24
2023/12/16 09:01:55;;;;;;;0.00;0.00;;;10.20;74.60;;;;;;5048968;28;20581;-24
2023/12/16 09:04:22;;;;;;;0.00;0.00;;;10.30;74.70;;;;;;5045652;28;20207;-23
2023/12/16 09:06:54;;;;;;;0.00;0.00;;;10.30;74.70;;;;;;5047319;28;20325;-24
2023/12/16 09:09:21;;;;;;;0.00;0.00;;;10.30;74.60;;;;;;5047061;28;20245;-24
2023/12/16 09:11:51;;;;;;;0.00;0.00;;;10.30;74.60;;;;;;5049640;28;20258;-23
2023/12/16 09:14:18;;;;;;;0.00;0.00;;;10.40;74.70;;;;;;5046154;28;20212;-25
2023/12/16 09:16:48;;;;;;;0.00;0.00;;;10.40;74.60;;;;;;5045527;28;20651;-23
2023/12/16 09:19:22;;;;;;;0.00;0.00;;;10.40;74.70;;;;;;5045923;28;20589;-24
2023/12/16 09:21:49;;;;;;;0.00;0.00;;;10.50;74.80;;;;;;5046453;28;20734;-24
2023/12/16 09:24:21;;;;;;;0.00;0.00;;;10.50;74.80;;;;;;5051966;28;20211;-24
2023/12/16 09:26:50;;;;;;;0.00;0.00;;;10.50;74.70;;;;;;5054952;28;20695;-23
2023/12/16 09:29:20;;;;;;;0.00;0.00;;;10.60;74.80;;;;;;5057005;28;20216;-24
2023/12/16 09:31:50;;;;;;;0.00;0.00;;;10.60;74.70;;;;;;5063652;28;20687;-24
2023/12/16 09:34:17;;;;;;;0.00;0.00;;;10.60;74.80;;;;;;5066192;28;20195;-24
2023/12/16 09:36:47;;;;;;;0.00;0.00;;;10.70;74.80;;;;;;5056619;28;20815;-24
2023/12/16 09:39:16;;;;;;;0.00;0.00;;;10.70;74.70;;;;;;5053077;28;20219;-24
2023/12/16 09:41:44;;;;;;;0.00;0.00;;;10.70;75.50;;;;;;5053029;28;20208;-24
2023/12/16 09:44:16;;;;;;;0.00;0.00;;;10.70;74.70;;;;;;5066215;28;20685;-24
2023/12/16 09:46:44;;;;;;;0.00;0.00;;;10.80;74.80;;;;;;5056782;28;20219;-24
2023/12/16 09:49:13;;;;;;;0.00;0.00;;;10.80;74.70;;;;;;5045131;28;20231;-24
2023/12/16 09:51:43;;;;;;;0.00;0.00;;;10.80;74.80;;;;;;5046836;28;20204;-24
2023/12/16 09:54:10;;;;;;;0.00;0.00;;;10.80;74.70;;;;;;5046484;28;20192;-25
2023/12/16 09:56:39;;;;;;;0.00;0.00;;;10.80;74.80;;;;;;5059471;28;20235;-24
2023/12/16 09:59:09;;;;;;;0.00;0.00;;;10.90;74.80;;;;;;5053455;28;20296;-24
2023/12/16 10:01:39;;;;;;;0.00;0.00;;;10.90;74.80;;;;;;5049615;28;20196;-24
2023/12/16 10:04:09;;;;;;;0.00;0.00;;;10.90;74.80;;;;;;5061385;28;20218;-23
2023/12/16 10:06:45;;;;;;;0.00;0.00;;;11.00;74.90;;;;;;5053315;28;20275;-23
2023/12/16 10:09:14;;;;;;;0.00;0.00;;;11.00;74.80;;;;;;5065558;28;20613;-23
2023/12/16 10:11:41;;;;;;;0.00;0.00;;;11.00;74.80;;;;;;5058553;28;20540;-24
2023/12/16 10:14:08;;;;;;;0.00;0.00;;;11.10;74.90;;;;;;5055219;28;20219;-24
2023/12/16 10:16:46;;;;;;;0.00;0.00;;;11.10;74.90;;;;;;5058780;28;20197;-23
2023/12/16 10:19:19;;;;;;;0.00;0.00;;;11.10;74.90;;;;;;5045580;28;20270;-24
2023/12/16 10:21:52;;;;;;;0.00;0.00;;;11.20;74.90;;;;;;5049369;28;20266;-24
2023/12/16 10:24:19;;;;;;;0.00;0.00;;;11.20;75.00;;;;;;5064622;28;20199;-23
2023/12/16 10:26:49;;;;;;;0.00;0.00;;;11.20;75.00;;;;;;5060550;28;20212;-24
2023/12/16 10:29:20;;;;;;;0.00;0.00;;;11.30;75.00;;;;;;5048973;28;20215;-24
2023/12/16 10:31:47;;;;;;;0.00;0.00;;;11.30;75.10;;;;;;5064309;28;20290;-24
2023/12/16 10:34:17;;;;;;;0.00;0.00;;;11.30;75.10;;;;;;5064218;28;20731;-24
2023/12/16 10:36:44;;;;;;;0.00;0.00;;;11.40;75.00;;;;;;5065921;28;20192;-24
2023/12/16 10:39:14;;;;;;;0.00;0.00;;;11.40;75.00;;;;;;5056029;28;20576;-24
2023/12/16 10:41:43;;;;;;;0.00;0.00;;;11.40;75.00;;;;;;5043533;28;20260;-24
2023/12/16 10:44:10;;;;;;;0.00;0.00;;;11.50;75.00;;;;;;5057430;28;20227;-24
2023/12/16 10:46:41;;;;;;;0.00;0.00;;;11.50;75.10;;;;;;5065018;28;20239;-24
2023/12/16 10:49:14;;;;;;;0.00;0.00;;;11.50;75.10;;;;;;5063929;28;20190;-24
2023/12/16 10:51:48;;;;;;;0.00;0.00;;;11.60;75.00;;;;;;5057429;28;21005;-27
2023/12/16 10:54:27;;;;;;;0.00;0.00;;;11.60;75.00;;;;;;5069775;28;20196;-26
2023/12/16 10:57:34;;;;;;;0.00;0.00;;;11.60;75.10;;;;;;5049663;28;20196;-26
2023/12/16 11:00:06;;;;;;;0.00;0.00;;;11.70;75.20;;;;;;5040874;28;20690;-25
2023/12/16 11:03:04;;;;;;;0.00;0.00;;;11.70;75.20;;;;;;5062266;28;20213;-26
2023/12/16 11:05:36;;;;;;;0.00;0.00;;;11.70;75.30;;;;;;5061458;28;20241;-26
2023/12/16 11:08:09;;;;;;;0.00;0.00;;;11.80;75.30;;;;;;5061098;28;20211;-26
2023/12/16 11:10:38;;;;;;;0.00;0.00;;;11.80;75.20;;;;;;5058350;28;20226;-26
2023/12/16 11:13:06;;;;;;;0.00;0.00;;;11.80;75.20;;;;;;5085410;28;20945;-24
2023/12/16 11:15:35;;;;;;;0.00;0.00;;;11.90;75.20;;;;;;5062756;28;20627;-26
2023/12/16 11:18:20;;;;;;;0.00;0.00;;;11.90;75.20;;;;;;5043670;28;20342;-26
2023/12/16 11:20:52;;;;;;;0.00;0.00;;;11.90;75.30;;;;;;5051939;28;20315;-25
2023/12/16 11:23:23;;;;;;;0.00;0.00;;;11.90;75.10;;;;;;5063626;28;20200;-26
2023/12/16 11:25:53;;;;;;;0.00;0.00;;;12.00;75.10;;;;;;5063087;28;20204;-26
2023/12/16 11:28:20;;;;;;;0.00;0.00;;;12.00;75.10;;;;;;5082694;28;20206;-26
2023/12/16 11:30:47;;;;;;;0.00;0.00;;;12.00;75.10;;;;;;5084583;28;20218;-26
2023/12/16 11:33:19;;;;;;;0.00;0.00;;;12.00;75.00;;;;;;5085056;28;20195;-26
2023/12/16 11:35:50;;;;;;;0.00;0.00;;;12.00;75.00;;;;;;5064050;28;20191;-24
2023/12/16 11:38:46;;;;;;;0.00;0.00;;;12.10;75.10;;;;;;5060501;28;20216;-25
2023/12/16 11:41:36;;;;;;;0.00;0.00;;;12.10;75.20;;;;;;5063113;28;20628;-25
2023/12/16 11:44:03;;;;;;;0.00;0.00;;;12.10;75.10;;;;;;5060296;28;20218;-25
2023/12/16 11:46:33;;;;;;;0.00;0.00;;;12.10;75.10;;;;;;5064271;28;20204;-25
2023/12/16 11:49:05;;;;;;;0.00;0.00;;;12.20;75.30;;;;;;5064302;28;20203;-25
2023/12/16 11:51:35;;;;;;;0.00;0.00;;;12.20;75.30;;;;;;5062442;28;20212;-25
2023/12/16 11:54:03;;;;;;;0.00;0.00;;;12.20;75.20;;;;;;5058712;28;20648;-25
2023/12/16 11:56:31;;;;;;;0.00;0.00;;;12.20;75.10;;;;;;5068588;28;20193;-25
2023/12/16 11:58:59;;;;;;;0.00;0.00;;;12.20;75.10;;;;;;5061454;28;20633;-25
2023/12/16 12:01:32;;;;;;;0.00;0.00;;;12.30;75.20;;;;;;5060042;28;20748;-25
2023/12/16 12:04:02;;;;;;;0.00;0.00;;;12.30;75.90;;;;;;5052356;28;20760;-25
2023/12/16 12:06:31;;;;;;;0.00;0.00;;;12.30;75.10;;;;;;5059128;28;20259;-25
2023/12/16 12:09:00;;;;;;;0.00;0.00;;;12.30;75.00;;;;;;5048511;28;20686;-25
2023/12/16 12:11:28;;;;;;;0.00;0.00;;;12.30;75.10;;;;;;5049733;28;20281;-25
2023/12/16 12:13:55;;;;;;;0.00;0.00;;;12.30;75.00;;;;;;5046664;28;20232;-25
2023/12/16 12:16:28;;;;;;;0.00;0.00;;;12.30;75.00;;;;;;5042482;28;20551;-25
2023/12/16 12:18:57;;;;;;;0.00;0.00;;;12.30;75.00;;;;;;5044906;28;20204;-25
2023/12/16 12:21:29;;;;;;;0.00;0.00;;;12.30;75.10;;;;;;5043535;28;20196;-25
2023/12/16 12:23:57;;;;;;;0.00;0.00;;;12.30;75.10;;;;;;5042619;28;20200;-25
2023/12/16 12:26:24;;;;;;;0.00;0.00;;;12.40;75.10;;;;;;5059349;28;20825;-25
2023/12/16 12:28:58;;;;;;;0.00;0.00;;;12.40;75.10;;;;;;5060221;28;20211;-25
2023/12/16 12:31:42;;;;;;;0.00;0.00;;;12.40;75.10;;;;;;5050032;28;20217;-25
2023/12/16 12:37:22;;;;;;;0.00;0.00;;;12.40;75.10;;;;;;4965561;24;20245;-21
2023/12/16 12:39:52;;;;;;;0.00;0.00;;;12.40;75.10;;;;;;4807613;29;20216;-21
2023/12/16 12:42:20;;;;;;;0.00;0.00;;;12.40;75.10;;;;;;4800799;29;20221;-21
2023/12/16 12:44:58;;;;;;;0.00;0.00;;;12.50;75.20;;;;;;4791320;29;20273;-22
2023/12/16 12:47:32;;;;;;;0.00;0.00;;;12.50;75.00;;;;;;4801124;29;20243;-21
2023/12/16 12:50:00;;;;;;;0.00;0.00;;;12.50;75.10;;;;;;4799430;29;20719;-21
2023/12/16 12:52:39;;;;;;;0.00;0.00;;;12.50;75.10;;;;;;4788082;29;20231;-21
2023/12/16 12:55:31;;;;;;;0.00;0.00;;;12.50;75.10;;;;;;4789997;29;20228;-36
2023/12/16 12:58:01;;;;;;;0.00;0.00;;;12.50;75.00;;;;;;4799349;29;20213;-34
2023/12/16 13:00:42;;;;;;;0.00;0.00;;;12.50;75.10;;;;;;4793234;29;20216;-33
2023/12/16 13:03:10;;;;;;;0.00;0.00;;;12.50;75.30;;;;;;4791171;29;20237;-33
2023/12/16 13:05:41;;;;;;;0.00;0.00;;;12.50;75.10;;;;;;4795961;29;20209;-35
2023/12/16 13:08:11;;;;;;;0.00;0.00;;;12.50;74.90;;;;;;4789737;29;20743;-34